Time;durP1;ratioP1;P1;durP2;ratioP2;P2;SDS_P1;SDS_P2;PMS_P1;PMS_P2;Temp;Humidity;BMP_temperature;BMP_pressure;BME280_temperature;BME280_humidity;BME280_pressure;Samples;Min_cycle;Max_cycle;Signal;HPM_P1;HPM_P2
2020/12/22 00:01:17;;;;;;;0.52;0.10;;;21.50;43.60;;;;;;5026708;28;20079;-43
2020/12/22 00:03:44;;;;;;;0.55;0.17;;;21.50;43.60;;;;;;5028266;28;20025;-45
2020/12/22 00:06:20;;;;;;;0.25;0.10;;;21.50;43.60;;;;;;5030598;28;20026;-46
2020/12/22 00:08:46;;;;;;;0.52;0.00;;;21.40;43.60;;;;;;5029443;28;20521;-44
2020/12/22 00:11:11;;;;;;;0.30;0.00;;;21.40;43.60;;;;;;5031248;28;20033;-45
2020/12/22 00:13:37;;;;;;;0.20;0.00;;;21.40;43.60;;;;;;5028242;28;20029;-39
2020/12/22 00:16:02;;;;;;;0.10;0.00;;;21.40;43.60;;;;;;5029764;28;20021;-49
2020/12/22 00:18:28;;;;;;;0.22;0.10;;;21.40;43.60;;;;;;5027983;28;20035;-45
2020/12/22 00:20:53;;;;;;;0.43;0.10;;;21.40;43.60;;;;;;5030604;28;20521;-44
2020/12/22 00:23:19;;;;;;;0.40;0.10;;;21.40;43.60;;;;;;5027255;28;20386;-42
2020/12/22 00:25:47;;;;;;;0.80;0.10;;;21.40;43.60;;;;;;5012382;28;20070;-40
2020/12/22 00:28:13;;;;;;;1.20;0.10;;;21.40;43.70;;;;;;5029068;28;20493;-45
2020/12/22 00:30:39;;;;;;;0.30;0.10;;;21.40;43.60;;;;;;5028660;28;20029;-46
2020/12/22 00:33:05;;;;;;;0.57;0.10;;;21.30;43.60;;;;;;5028541;28;20085;-47
2020/12/22 00:35:31;;;;;;;0.40;0.00;;;21.30;43.60;;;;;;5030665;28;20029;-41
2020/12/22 00:37:57;;;;;;;0.52;0.00;;;21.30;43.70;;;;;;5028564;28;20063;-41
2020/12/22 00:40:23;;;;;;;0.40;0.10;;;21.30;43.70;;;;;;5028132;28;20021;-46
2020/12/22 00:42:48;;;;;;;0.38;0.00;;;21.30;43.70;;;;;;5028067;28;20101;-44
2020/12/22 00:45:14;;;;;;;0.10;0.00;;;21.30;43.70;;;;;;5030653;28;20013;-48
2020/12/22 00:47:39;;;;;;;0.20;0.10;;;21.30;43.70;;;;;;5028889;28;20022;-47
2020/12/22 00:50:06;;;;;;;0.20;0.00;;;21.30;43.70;;;;;;5011811;28;20474;-46
2020/12/22 00:52:31;;;;;;;1.00;0.00;;;21.30;43.70;;;;;;5082611;23;20044;-82
2020/12/22 00:54:57;;;;;;;0.22;0.00;;;21.30;43.70;;;;;;5062598;28;20024;-83
2020/12/22 00:57:22;;;;;;;0.35;0.00;;;21.20;43.70;;;;;;5051921;28;20029;-82
2020/12/22 00:59:48;;;;;;;0.20;0.00;;;21.20;43.70;;;;;;5073577;28;20020;-84
2020/12/22 01:02:14;;;;;;;0.30;0.10;;;21.20;43.70;;;;;;5057521;28;20068;-83
2020/12/22 01:04:40;;;;;;;0.20;0.08;;;21.20;43.70;;;;;;5059579;28;20025;-83
2020/12/22 01:07:08;;;;;;;0.25;0.03;;;21.20;43.70;;;;;;5054032;28;20495;-83
2020/12/22 01:09:34;;;;;;;0.50;0.10;;;21.20;43.70;;;;;;5061372;28;20085;-82
2020/12/22 01:11:59;;;;;;;0.20;0.00;;;21.20;43.70;;;;;;5059223;28;20428;-83
2020/12/22 01:14:25;;;;;;;0.10;0.00;;;21.20;43.70;;;;;;5059284;28;20039;-82
2020/12/22 01:16:54;;;;;;;0.20;0.00;;;21.10;43.70;;;;;;5054626;28;20024;-84
2020/12/22 01:19:19;;;;;;;0.22;0.05;;;21.10;43.70;;;;;;5061072;28;20558;-83
2020/12/22 01:21:45;;;;;;;0.30;0.10;;;21.10;43.80;;;;;;5056085;28;20113;-83
2020/12/22 01:24:11;;;;;;;1.23;0.10;;;21.10;43.80;;;;;;5058179;28;20481;-83
2020/12/22 01:26:36;;;;;;;0.52;0.08;;;21.10;43.80;;;;;;5058440;28;20082;-82
2020/12/22 01:29:03;;;;;;;0.10;0.00;;;21.10;43.80;;;;;;5061641;28;20035;-84
2020/12/22 01:31:30;;;;;;;0.28;0.00;;;21.10;43.80;;;;;;5061701;28;20028;-85
2020/12/22 01:33:58;;;;;;;0.20;0.00;;;21.10;44.10;;;;;;5061753;28;20048;-82
2020/12/22 01:36:24;;;;;;;0.30;0.00;;;21.10;43.90;;;;;;5057276;28;20030;-83
2020/12/22 01:38:50;;;;;;;0.22;0.00;;;21.10;43.90;;;;;;5069953;28;20028;-82
2020/12/22 01:41:16;;;;;;;0.20;0.00;;;21.10;43.90;;;;;;5060872;28;20035;-83
2020/12/22 01:43:43;;;;;;;0.10;0.00;;;21.10;43.90;;;;;;5061797;28;20063;-84
2020/12/22 01:46:09;;;;;;;0.10;0.00;;;21.00;43.90;;;;;;5058601;28;20021;-85
2020/12/22 01:48:36;;;;;;;0.10;0.00;;;21.00;43.90;;;;;;5059159;28;20020;-84
2020/12/22 01:51:03;;;;;;;0.20;0.00;;;21.00;43.90;;;;;;5061937;28;20050;-81
2020/12/22 01:53:28;;;;;;;0.20;0.00;;;21.00;43.90;;;;;;5061190;28;20030;-83
2020/12/22 01:55:54;;;;;;;0.20;0.00;;;21.00;43.90;;;;;;5052949;28;20390;-83
2020/12/22 01:58:20;;;;;;;0.60;0.00;;;21.00;43.90;;;;;;5061407;28;20032;-83
2020/12/22 02:00:46;;;;;;;0.30;0.00;;;21.00;43.90;;;;;;5058983;28;20031;-83
2020/12/22 02:03:11;;;;;;;0.25;0.10;;;21.00;44.00;;;;;;5072162;28;20046;-84
2020/12/22 02:05:38;;;;;;;0.20;0.00;;;21.00;44.00;;;;;;5068339;28;20024;-83
2020/12/22 02:08:07;;;;;;;1.13;0.03;;;21.00;44.00;;;;;;5069821;28;20099;-82
2020/12/22 02:10:33;;;;;;;0.40;0.03;;;21.00;44.00;;;;;;5060003;28;20028;-83
2020/12/22 02:12:59;;;;;;;0.08;0.00;;;21.00;44.00;;;;;;5060406;28;20032;-82
2020/12/22 02:15:26;;;;;;;0.20;0.00;;;20.90;44.00;;;;;;5057416;28;20408;-84
2020/12/22 02:17:52;;;;;;;0.10;0.00;;;20.90;44.00;;;;;;5060127;28;20028;-83
2020/12/22 02:20:17;;;;;;;0.10;0.00;;;20.90;44.10;;;;;;5060432;28;20181;-81
2020/12/22 02:22:43;;;;;;;0.10;0.00;;;20.90;44.10;;;;;;5059094;28;20024;-82
2020/12/22 02:25:14;;;;;;;0.17;0.00;;;20.90;44.10;;;;;;5046723;28;20378;-83
2020/12/22 02:27:40;;;;;;;0.20;0.00;;;20.90;44.10;;;;;;5083233;28;20093;-82
2020/12/22 02:30:06;;;;;;;0.10;0.00;;;20.90;44.10;;;;;;5052906;28;20056;-83
2020/12/22 02:32:32;;;;;;;0.20;0.00;;;20.90;44.10;;;;;;5053326;28;20504;-82
2020/12/22 02:34:58;;;;;;;0.20;0.00;;;20.90;44.30;;;;;;5076431;28;20031;-83
2020/12/22 02:37:23;;;;;;;0.10;0.00;;;20.90;44.20;;;;;;5054006;28;20028;-82
2020/12/22 02:39:49;;;;;;;0.10;0.00;;;20.90;44.20;;;;;;5062328;28;20037;-84
2020/12/22 02:42:15;;;;;;;0.25;0.00;;;20.90;44.10;;;;;;5076564;28;20110;-82
2020/12/22 02:44:41;;;;;;;0.10;0.00;;;20.90;44.20;;;;;;5096097;28;20164;-82
2020/12/22 02:47:12;;;;;;;0.38;0.10;;;20.90;44.30;;;;;;5069947;28;20036;-82
2020/12/22 02:49:39;;;;;;;0.10;0.00;;;20.90;44.30;;;;;;5064308;28;20024;-83
2020/12/22 02:52:04;;;;;;;0.35;0.00;;;20.90;44.30;;;;;;5058703;28;20036;-82
2020/12/22 02:54:30;;;;;;;0.10;0.00;;;20.90;44.30;;;;;;5059943;28;20389;-83
2020/12/22 02:56:55;;;;;;;1.40;0.00;;;20.80;44.30;;;;;;5060096;28;20077;-82
2020/12/22 02:59:21;;;;;;;1.50;0.10;;;20.80;44.40;;;;;;5055206;28;20029;-82
2020/12/22 03:01:47;;;;;;;0.08;0.00;;;20.80;44.40;;;;;;5067623;28;20036;-84
2020/12/22 03:04:13;;;;;;;0.20;0.00;;;20.80;44.40;;;;;;5060623;28;20051;-80
2020/12/22 03:06:38;;;;;;;0.05;0.00;;;20.80;44.50;;;;;;5060110;28;20096;-81
2020/12/22 03:09:05;;;;;;;0.17;0.00;;;20.80;44.50;;;;;;5056583;28;20036;-83
2020/12/22 03:11:31;;;;;;;0.35;0.00;;;20.80;44.50;;;;;;5051901;28;20039;-82
2020/12/22 03:13:56;;;;;;;0.40;0.00;;;20.80;44.40;;;;;;5071741;28;20597;-83
2020/12/22 03:16:22;;;;;;;0.28;0.00;;;20.80;44.50;;;;;;5047283;28;20027;-83
2020/12/22 03:18:47;;;;;;;0.22;0.03;;;20.80;44.50;;;;;;5079246;28;20114;-82
2020/12/22 03:21:15;;;;;;;0.40;0.00;;;20.80;44.40;;;;;;5064934;28;20110;-83
2020/12/22 03:23:41;;;;;;;0.20;0.00;;;20.80;44.50;;;;;;5066083;28;20042;-83
2020/12/22 03:26:06;;;;;;;0.20;0.00;;;20.80;44.50;;;;;;5047665;28;20040;-81
2020/12/22 03:28:32;;;;;;;0.20;0.00;;;20.80;44.40;;;;;;5094055;28;20036;-82
2020/12/22 03:30:57;;;;;;;0.30;0.00;;;20.80;44.40;;;;;;5059975;28;20547;-84
2020/12/22 03:33:23;;;;;;;0.10;0.00;;;20.80;44.60;;;;;;5059591;28;20016;-83
2020/12/22 03:35:49;;;;;;;0.20;0.00;;;20.80;44.50;;;;;;5059472;28;20146;-81
2020/12/22 03:38:14;;;;;;;0.10;0.00;;;20.80;44.60;;;;;;5060919;28;20020;-83
2020/12/22 03:40:40;;;;;;;0.30;0.00;;;20.80;44.50;;;;;;5079183;28;20040;-81
2020/12/22 03:43:05;;;;;;;0.32;0.00;;;20.80;44.60;;;;;;5063698;28;20036;-82
2020/12/22 03:45:31;;;;;;;0.10;0.00;;;20.80;44.60;;;;;;5058292;28;20044;-84
2020/12/22 03:47:56;;;;;;;0.40;0.00;;;20.70;44.60;;;;;;5059335;28;20020;-82
2020/12/22 03:50:22;;;;;;;0.20;0.00;;;20.70;44.70;;;;;;5060965;28;20021;-84
2020/12/22 03:52:48;;;;;;;0.90;0.00;;;20.80;44.60;;;;;;5079184;28;20047;-81
2020/12/22 03:55:14;;;;;;;0.30;0.10;;;20.70;44.70;;;;;;5063313;28;20397;-80
2020/12/22 03:57:40;;;;;;;0.30;0.00;;;20.70;44.70;;;;;;5087975;28;20044;-83
2020/12/22 04:00:06;;;;;;;0.10;0.00;;;20.70;44.70;;;;;;5063042;28;20051;-83
2020/12/22 04:02:32;;;;;;;0.22;0.00;;;20.70;44.70;;;;;;5080102;28;20114;-84
2020/12/22 04:04:57;;;;;;;0.13;0.00;;;20.70;44.70;;;;;;5079800;28;20055;-83
2020/12/22 04:07:23;;;;;;;0.85;0.00;;;20.70;44.70;;;;;;5079180;28;20557;-81
2020/12/22 04:09:49;;;;;;;0.10;0.00;;;20.70;44.70;;;;;;5061465;28;20119;-82
2020/12/22 04:12:14;;;;;;;0.13;0.00;;;20.70;44.70;;;;;;5060516;28;20024;-84
2020/12/22 04:14:40;;;;;;;0.22;0.00;;;20.70;44.70;;;;;;5059785;28;20381;-83
2020/12/22 04:17:06;;;;;;;0.10;0.00;;;20.70;44.80;;;;;;5061142;28;20028;-83
2020/12/22 04:19:31;;;;;;;0.10;0.00;;;20.70;44.90;;;;;;5059188;28;20040;-82
2020/12/22 04:21:57;;;;;;;0.30;0.05;;;20.70;44.90;;;;;;5057597;28;20131;-83
2020/12/22 04:24:22;;;;;;;0.20;0.00;;;20.70;44.80;;;;;;5062142;28;20012;-82
2020/12/22 04:26:48;;;;;;;0.17;0.00;;;20.70;44.80;;;;;;5060317;28;20585;-83
2020/12/22 04:29:13;;;;;;;0.43;0.00;;;20.70;44.90;;;;;;5095938;28;20024;-82
2020/12/22 04:31:39;;;;;;;0.20;0.00;;;20.70;44.80;;;;;;5079654;28;20016;-83
2020/12/22 04:34:05;;;;;;;0.17;0.00;;;20.70;44.90;;;;;;5077293;28;20031;-83
2020/12/22 04:36:30;;;;;;;0.30;0.00;;;20.70;44.80;;;;;;5070396;28;20032;-81
2020/12/22 04:38:56;;;;;;;0.10;0.00;;;20.70;44.80;;;;;;5057922;28;20484;-84
2020/12/22 04:41:22;;;;;;;0.47;0.00;;;20.70;44.80;;;;;;5096436;28;20036;-82
2020/12/22 04:43:50;;;;;;;0.25;0.00;;;20.70;44.80;;;;;;5068752;28;20052;-83
2020/12/22 04:46:21;;;;;;;0.10;0.00;;;20.70;44.80;;;;;;5057644;28;20066;-83
2020/12/22 04:48:55;;;;;;;0.43;0.00;;;20.70;44.90;;;;;;5052945;28;20032;-82
2020/12/22 04:51:22;;;;;;;0.10;0.00;;;20.70;44.80;;;;;;5073255;28;20078;-82
2020/12/22 04:53:48;;;;;;;0.10;0.00;;;20.70;44.80;;;;;;5078503;28;20027;-83
2020/12/22 04:56:15;;;;;;;0.30;0.00;;;20.70;44.80;;;;;;5049420;28;20040;-81
2020/12/22 04:58:41;;;;;;;0.20;0.00;;;20.70;44.70;;;;;;5058906;28;20119;-82
2020/12/22 05:01:06;;;;;;;0.15;0.00;;;20.70;44.70;;;;;;5071443;28;20028;-83
2020/12/22 05:03:32;;;;;;;0.05;0.00;;;20.70;45.30;;;;;;5060331;28;20043;-82
2020/12/22 05:05:58;;;;;;;0.10;0.00;;;20.70;44.70;;;;;;5061616;28;20097;-83
2020/12/22 05:08:24;;;;;;;0.08;0.00;;;20.70;44.80;;;;;;5076733;28;20085;-83
2020/12/22 05:10:51;;;;;;;0.40;0.00;;;20.70;44.70;;;;;;5077565;28;20024;-83
2020/12/22 05:13:18;;;;;;;0.32;0.00;;;20.70;45.30;;;;;;5087461;28;20032;-83
2020/12/22 05:15:48;;;;;;;0.10;0.00;;;20.70;44.80;;;;;;5051368;28;20040;-83
2020/12/22 05:18:13;;;;;;;0.20;0.00;;;20.70;44.80;;;;;;5078207;28;20024;-83
2020/12/22 05:20:41;;;;;;;0.32;0.00;;;20.70;44.80;;;;;;5058894;28;20591;-83
2020/12/22 05:23:17;;;;;;;0.10;0.00;;;20.70;44.80;;;;;;5077134;28;20046;-82
2020/12/22 05:25:44;;;;;;;0.10;0.00;;;20.70;44.80;;;;;;5044480;28;20020;-82
2020/12/22 05:28:13;;;;;;;0.20;0.00;;;20.70;44.80;;;;;;5095515;28;20063;-82
2020/12/22 05:30:39;;;;;;;0.20;0.00;;;20.70;44.80;;;;;;5068285;28;20474;-84
2020/12/22 05:33:05;;;;;;;0.98;0.00;;;20.70;45.00;;;;;;5053907;28;20028;-83
2020/12/22 05:35:39;;;;;;;0.00;0.00;;;20.70;45.00;;;;;;5053514;28;20057;-83
2020/12/22 05:38:06;;;;;;;0.85;0.00;;;20.70;44.90;;;;;;5056359;28;20032;-83
2020/12/22 05:40:32;;;;;;;0.10;0.00;;;20.70;44.90;;;;;;5076013;28;20032;-82
2020/12/22 05:42:59;;;;;;;0.30;0.00;;;20.70;45.00;;;;;;5073172;28;20024;-82
2020/12/22 05:45:29;;;;;;;0.03;0.00;;;20.70;44.90;;;;;;5055967;28;20027;-83
2020/12/22 05:47:55;;;;;;;0.32;0.00;;;20.70;45.00;;;;;;5077192;28;20101;-83
2020/12/22 05:50:21;;;;;;;0.00;0.00;;;20.70;45.00;;;;;;5054988;28;20032;-83
2020/12/22 05:52:50;;;;;;;0.22;0.00;;;20.70;45.00;;;;;;5068313;28;20089;-83
2020/12/22 05:55:31;;;;;;;0.20;0.00;;;20.70;44.90;;;;;;5060705;28;20024;-84
2020/12/22 05:58:10;;;;;;;0.10;0.00;;;20.70;45.10;;;;;;5076240;28;20032;-83
2020/12/22 06:00:41;;;;;;;0.32;0.00;;;20.70;45.10;;;;;;5058578;28;20039;-83
2020/12/22 06:03:09;;;;;;;0.10;0.00;;;20.70;45.10;;;;;;5074333;28;20032;-82
2020/12/22 06:05:39;;;;;;;0.10;0.00;;;20.70;45.10;;;;;;5053174;28;20024;-81
2020/12/22 06:08:07;;;;;;;0.20;0.00;;;20.70;45.00;;;;;;5066837;28;20027;-82
2020/12/22 06:10:38;;;;;;;0.10;0.00;;;20.70;45.20;;;;;;5082768;28;20032;-84
2020/12/22 06:13:05;;;;;;;0.00;0.00;;;20.70;45.30;;;;;;5060612;28;20073;-84
2020/12/22 06:15:32;;;;;;;0.20;0.00;;;20.70;45.20;;;;;;5059644;28;20039;-83
2020/12/22 06:17:58;;;;;;;0.00;0.00;;;20.60;45.10;;;;;;5071854;28;20044;-84
2020/12/22 06:20:26;;;;;;;0.10;0.00;;;20.60;45.30;;;;;;5051795;28;20036;-84
2020/12/22 06:23:03;;;;;;;0.00;0.00;;;20.60;45.20;;;;;;5050118;28;20024;-84
2020/12/22 06:25:29;;;;;;;0.03;0.00;;;20.60;45.10;;;;;;5076164;28;20051;-83
2020/12/22 06:27:55;;;;;;;0.00;0.00;;;20.60;45.10;;;;;;5077114;28;20024;-83
2020/12/22 06:30:32;;;;;;;0.35;0.00;;;20.60;45.20;;;;;;5059664;28;20409;-82
2020/12/22 06:33:36;;;;;;;0.20;0.05;;;20.60;45.30;;;;;;5076848;28;20040;-83
2020/12/22 06:36:05;;;;;;;0.30;0.00;;;20.60;45.20;;;;;;4993703;28;20295;-82
2020/12/22 06:38:48;;;;;;;0.17;0.00;;;20.60;45.30;;;;;;5042622;28;20047;-82
2020/12/22 06:41:34;;;;;;;0.00;0.00;;;20.60;45.20;;;;;;5052857;28;20020;-82
2020/12/22 06:44:19;;;;;;;0.00;0.00;;;20.70;45.10;;;;;;5063951;28;20070;-81
2020/12/22 06:46:56;;;;;;;0.10;0.00;;;20.80;44.90;;;;;;5059628;28;20058;-81
2020/12/22 06:49:51;;;;;;;0.00;0.00;;;20.90;44.70;;;;;;5060050;28;20097;-84
2020/12/22 06:52:35;;;;;;;0.08;0.00;;;21.00;44.60;;;;;;5075280;28;20060;-84
2020/12/22 06:55:03;;;;;;;0.30;0.00;;;21.20;44.40;;;;;;5053944;28;20017;-82
2020/12/22 06:57:44;;;;;;;0.20;0.00;;;21.30;44.40;;;;;;5071746;28;20016;-85
2020/12/22 07:00:28;;;;;;;0.00;0.00;;;21.30;44.20;;;;;;5043858;28;20017;-81
2020/12/22 07:03:12;;;;;;;0.30;0.00;;;21.40;44.20;;;;;;5071380;28;20032;-84
2020/12/22 07:05:45;;;;;;;0.57;0.00;;;21.40;44.10;;;;;;5054601;28;20020;-81
2020/12/22 07:08:13;;;;;;;0.10;0.00;;;21.50;44.10;;;;;;5076270;28;20444;-83
2020/12/22 07:10:44;;;;;;;0.60;0.00;;;21.50;44.10;;;;;;5054180;28;20036;-82
2020/12/22 07:13:12;;;;;;;;;;;21.50;44.00;;;;;;5051137;28;20028;-80
2020/12/22 07:15:43;;;;;;;0.20;0.00;;;21.50;44.00;;;;;;5046570;28;19931;-82
2020/12/22 07:18:15;;;;;;;0.10;0.00;;;21.50;44.10;;;;;;5078837;28;20475;-80
2020/12/22 07:20:42;;;;;;;1.23;0.00;;;21.50;43.90;;;;;;5060018;28;20021;-83
2020/12/22 07:23:12;;;;;;;0.15;0.00;;;21.60;43.90;;;;;;5079238;28;20024;-83
2020/12/22 07:25:39;;;;;;;0.10;0.00;;;21.50;43.90;;;;;;5079521;28;20070;-82
2020/12/22 07:28:07;;;;;;;0.15;0.00;;;21.60;44.10;;;;;;5046988;28;20016;-81
2020/12/22 07:30:33;;;;;;;0.08;0.00;;;21.50;44.10;;;;;;5063883;28;20042;-82
2020/12/22 07:33:01;;;;;;;0.17;0.00;;;21.60;44.20;;;;;;5080769;28;20554;-85
2020/12/22 07:35:28;;;;;;;0.00;0.00;;;21.60;44.10;;;;;;5064032;28;20070;-85
2020/12/22 07:38:01;;;;;;;0.10;0.00;;;21.60;44.20;;;;;;5074344;28;20063;-83
2020/12/22 07:40:27;;;;;;;0.20;0.00;;;21.60;44.30;;;;;;5059253;28;20028;-81
2020/12/22 07:43:05;;;;;;;0.43;0.00;;;21.50;44.40;;;;;;5069840;28;20064;-81
2020/12/22 07:45:31;;;;;;;0.17;0.00;;;21.60;44.40;;;;;;5055128;28;20535;-83
2020/12/22 07:47:57;;;;;;;0.10;0.00;;;21.50;44.40;;;;;;5066760;28;20020;-82
2020/12/22 07:50:22;;;;;;;0.25;0.00;;;21.50;44.60;;;;;;5079358;28;20067;-83
2020/12/22 07:52:58;;;;;;;0.60;0.00;;;21.50;44.70;;;;;;5058008;28;20028;-83
2020/12/22 07:55:24;;;;;;;0.85;0.00;;;21.50;44.60;;;;;;5063078;28;20083;-82
2020/12/22 07:57:51;;;;;;;0.00;0.00;;;21.50;44.60;;;;;;5078817;28;20055;-81
2020/12/22 08:00:16;;;;;;;0.20;0.00;;;21.50;44.60;;;;;;5060351;28;20040;-82
2020/12/22 08:02:42;;;;;;;0.20;0.00;;;21.50;44.60;;;;;;5065992;28;20494;-81
2020/12/22 08:05:08;;;;;;;0.20;0.00;;;21.50;44.60;;;;;;5046211;28;20027;-81
2020/12/22 08:07:34;;;;;;;3.10;0.00;;;21.40;44.60;;;;;;5091401;28;20024;-83
2020/12/22 08:10:10;;;;;;;0.32;0.00;;;21.40;44.60;;;;;;5068384;28;20089;-83
2020/12/22 08:12:36;;;;;;;0.77;0.00;;;21.40;44.60;;;;;;5050944;28;20031;-82
2020/12/22 08:15:03;;;;;;;0.20;0.00;;;21.40;44.70;;;;;;5079715;28;20028;-81
2020/12/22 08:17:29;;;;;;;0.20;0.00;;;21.40;44.70;;;;;;5074120;28;20458;-84
2020/12/22 08:19:55;;;;;;;0.10;0.00;;;21.40;44.70;;;;;;5061188;28;20035;-81
2020/12/22 08:22:22;;;;;;;0.30;0.10;;;21.40;44.80;;;;;;5077835;28;20103;-82
2020/12/22 08:24:48;;;;;;;1.75;0.10;;;21.30;44.80;;;;;;5061566;28;20069;-81
2020/12/22 08:27:13;;;;;;;0.32;0.00;;;21.30;44.80;;;;;;5061299;28;20424;-82
2020/12/22 08:29:42;;;;;;;0.10;0.00;;;21.30;44.80;;;;;;5044337;28;20031;-81
2020/12/22 08:32:08;;;;;;;1.65;0.00;;;21.30;44.90;;;;;;5077433;28;20545;-78
2020/12/22 08:34:33;;;;;;;0.60;0.00;;;21.40;44.90;;;;;;5078157;28;20048;-82
2020/12/22 08:37:11;;;;;;;0.30;0.00;;;21.50;44.60;;;;;;5081449;28;20092;-81
2020/12/22 08:39:41;;;;;;;0.20;0.00;;;21.50;44.40;;;;;;5078810;28;20017;-81
2020/12/22 08:42:09;;;;;;;0.32;0.00;;;21.60;44.30;;;;;;5059448;28;20047;-81
2020/12/22 08:44:34;;;;;;;1.27;0.00;;;21.60;44.30;;;;;;5059065;28;20020;-78
2020/12/22 08:47:11;;;;;;;0.10;0.00;;;21.60;44.90;;;;;;5046739;28;20035;-79
2020/12/22 08:49:37;;;;;;;2.35;0.00;;;21.50;44.60;;;;;;5081230;28;20436;-79
2020/12/22 08:52:17;;;;;;;0.40;0.00;;;21.60;44.60;;;;;;5063236;28;20032;-80
2020/12/22 08:54:43;;;;;;;0.28;0.03;;;21.60;44.50;;;;;;5074568;28;20050;-80
2020/12/22 08:57:14;;;;;;;0.13;0.00;;;21.60;44.60;;;;;;5075462;28;20104;-81
2020/12/22 08:59:40;;;;;;;0.35;0.08;;;21.60;44.60;;;;;;5078520;28;20892;-80
2020/12/22 09:02:06;;;;;;;0.10;0.00;;;21.60;44.70;;;;;;5074881;28;20064;-82
2020/12/22 09:04:33;;;;;;;1.88;0.10;;;21.60;44.80;;;;;;5050024;28;20029;-83
2020/12/22 09:06:59;;;;;;;1.27;0.20;;;21.50;45.00;;;;;;5077679;28;20047;-81
2020/12/22 09:09:27;;;;;;;0.93;0.10;;;21.40;45.10;;;;;;5074982;28;20561;-82
2020/12/22 09:12:09;;;;;;;3.10;0.00;;;21.40;45.40;;;;;;5062974;28;20067;-83
2020/12/22 09:14:46;;;;;;;0.30;0.00;;;21.30;45.50;;;;;;5059592;28;20056;-82
2020/12/22 09:17:13;;;;;;;0.10;0.00;;;21.20;45.50;;;;;;5094898;28;20528;-82
2020/12/22 09:19:42;;;;;;;0.95;0.10;;;21.20;45.50;;;;;;5043332;28;20119;-82
2020/12/22 09:22:07;;;;;;;0.40;0.00;;;21.20;45.50;;;;;;5056145;28;20044;-81
2020/12/22 09:24:34;;;;;;;0.28;0.00;;;21.20;45.50;;;;;;5059388;28;20135;-82
2020/12/22 09:27:09;;;;;;;0.30;0.00;;;21.20;45.50;;;;;;5059766;28;20055;-83
2020/12/22 09:29:37;;;;;;;0.30;0.08;;;21.20;45.50;;;;;;5061253;28;20024;-81
2020/12/22 09:32:04;;;;;;;0.30;0.10;;;21.20;45.50;;;;;;5073097;28;20041;-82
2020/12/22 09:34:31;;;;;;;0.63;0.00;;;21.20;45.60;;;;;;5072227;28;20041;-82
2020/12/22 09:37:00;;;;;;;0.45;0.15;;;21.20;45.50;;;;;;5053240;28;20024;-82
2020/12/22 09:39:27;;;;;;;0.40;0.00;;;21.10;45.50;;;;;;5053751;28;20020;-82
2020/12/22 09:41:53;;;;;;;0.25;0.00;;;21.10;45.60;;;;;;5057469;28;20371;-80
2020/12/22 09:44:19;;;;;;;0.20;0.00;;;21.30;45.60;;;;;;5049669;28;20025;-81
2020/12/22 09:46:49;;;;;;;0.63;0.00;;;21.40;45.50;;;;;;5058152;28;20035;-79
2020/12/22 09:49:16;;;;;;;0.47;0.10;;;21.40;45.30;;;;;;5047781;28;20627;-79
2020/12/22 09:51:42;;;;;;;0.50;0.00;;;21.50;45.20;;;;;;5069289;28;20443;-79
2020/12/22 09:54:08;;;;;;;1.58;0.10;;;21.60;45.00;;;;;;5062697;28;20119;-78
2020/12/22 09:56:33;;;;;;;1.85;0.10;;;21.70;44.90;;;;;;5073231;28;20052;-78
2020/12/22 09:58:59;;;;;;;0.55;0.10;;;21.80;44.70;;;;;;5078525;28;20039;-78
2020/12/22 10:01:26;;;;;;;0.30;0.13;;;21.90;44.60;;;;;;5079046;28;20020;-78
2020/12/22 10:03:52;;;;;;;4.22;0.10;;;22.00;44.50;;;;;;5052544;28;20032;-81
2020/12/22 10:06:19;;;;;;;0.35;0.10;;;22.10;44.40;;;;;;5063938;28;20076;-79
2020/12/22 10:08:46;;;;;;;0.68;0.17;;;22.20;44.40;;;;;;5073421;28;20081;-80
2020/12/22 10:11:12;;;;;;;1.35;0.10;;;22.30;44.30;;;;;;5065522;28;20384;-77
2020/12/22 10:13:37;;;;;;;0.45;0.10;;;22.40;44.10;;;;;;5060284;28;20115;-79
2020/12/22 10:16:08;;;;;;;0.30;0.10;;;22.40;44.20;;;;;;5087430;28;20082;-80
2020/12/22 10:18:34;;;;;;;0.32;0.10;;;22.40;44.20;;;;;;5077795;28;20119;-81
2020/12/22 10:21:04;;;;;;;0.20;0.10;;;22.40;44.20;;;;;;5057881;28;20234;-80
2020/12/22 10:23:30;;;;;;;0.43;0.20;;;22.40;44.30;;;;;;5058318;28;20036;-79
2020/12/22 10:25:56;;;;;;;0.32;0.10;;;22.40;44.40;;;;;;5066616;28;20237;-81
2020/12/22 10:28:21;;;;;;;0.90;0.10;;;22.40;44.40;;;;;;5073461;28;20023;-82
2020/12/22 10:30:47;;;;;;;0.30;0.03;;;22.40;44.40;;;;;;5076896;28;20028;-80
2020/12/22 10:33:13;;;;;;;0.20;0.00;;;22.30;44.70;;;;;;5060293;28;20031;-81
2020/12/22 10:35:38;;;;;;;0.52;0.10;;;22.20;45.20;;;;;;5073783;28;20025;-80
2020/12/22 10:38:04;;;;;;;1.00;0.00;;;22.20;45.20;;;;;;5072130;28;20024;-80
2020/12/22 10:40:29;;;;;;;0.32;0.03;;;22.20;45.20;;;;;;5070953;28;20036;-79
2020/12/22 10:42:55;;;;;;;0.75;0.10;;;22.20;45.10;;;;;;5058929;28;20035;-79
2020/12/22 10:45:20;;;;;;;0.47;0.10;;;22.30;45.10;;;;;;5074504;28;20038;-81
2020/12/22 10:47:46;;;;;;;0.43;0.10;;;22.30;45.30;;;;;;5069829;28;20032;-79
2020/12/22 10:50:12;;;;;;;0.30;0.10;;;22.30;45.20;;;;;;5058114;28;20065;-81
2020/12/22 10:52:37;;;;;;;0.43;0.05;;;22.20;45.10;;;;;;5076284;28;20113;-79
2020/12/22 10:55:04;;;;;;;0.40;0.10;;;22.20;45.20;;;;;;5060160;28;20036;-78
2020/12/22 10:57:29;;;;;;;0.70;0.10;;;22.20;45.30;;;;;;5060350;28;20060;-80
2020/12/22 10:59:55;;;;;;;0.43;0.10;;;22.10;45.30;;;;;;5059332;28;20416;-83
2020/12/22 11:02:21;;;;;;;0.55;0.10;;;22.10;45.40;;;;;;5059703;28;20032;-81
2020/12/22 11:04:47;;;;;;;0.60;0.10;;;22.10;45.40;;;;;;5062639;28;20094;-81
2020/12/22 11:07:22;;;;;;;0.30;0.10;;;22.20;45.30;;;;;;5061676;28;20107;-80
2020/12/22 11:09:48;;;;;;;2.97;0.10;;;22.10;45.60;;;;;;5051059;28;20102;-82
2020/12/22 11:12:14;;;;;;;0.70;0.20;;;22.00;46.20;;;;;;5051717;28;20020;-80
2020/12/22 11:14:39;;;;;;;1.58;0.30;;;22.00;45.90;;;;;;5055075;28;20021;-80
2020/12/22 11:17:05;;;;;;;3.05;0.20;;;22.00;45.90;;;;;;5073239;28;20031;-80
2020/12/22 11:19:30;;;;;;;0.47;0.17;;;22.00;45.90;;;;;;5054796;28;20040;-79
2020/12/22 11:21:56;;;;;;;0.52;0.10;;;22.00;46.10;;;;;;5076036;28;20428;-80
2020/12/22 11:24:21;;;;;;;0.63;0.10;;;22.00;46.20;;;;;;5069401;28;20024;-79
2020/12/22 11:26:47;;;;;;;0.60;0.10;;;22.00;46.20;;;;;;5058470;28;20623;-81
2020/12/22 11:29:12;;;;;;;0.85;0.15;;;22.10;46.10;;;;;;5075271;28;20036;-79
2020/12/22 11:31:38;;;;;;;0.60;0.10;;;22.00;46.30;;;;;;5076227;28;20028;-83
2020/12/22 11:34:04;;;;;;;1.30;0.20;;;22.00;46.30;;;;;;5081733;28;20028;-81
2020/12/22 11:36:29;;;;;;;0.75;0.25;;;22.00;46.20;;;;;;5058773;28;20067;-80
2020/12/22 11:38:55;;;;;;;0.73;0.10;;;22.00;46.20;;;;;;5059981;28;20115;-83
2020/12/22 11:41:22;;;;;;;0.82;0.10;;;22.00;46.30;;;;;;5079624;28;20149;-84
2020/12/22 11:43:48;;;;;;;0.35;0.10;;;22.10;46.20;;;;;;5058714;28;20032;-82
2020/12/22 11:46:14;;;;;;;1.95;0.10;;;22.10;45.90;;;;;;5057468;28;20024;-78
2020/12/22 11:48:39;;;;;;;0.70;0.10;;;22.10;46.00;;;;;;5059378;28;20023;-78
2020/12/22 11:51:06;;;;;;;0.40;0.20;;;22.10;46.20;;;;;;5060872;28;20092;-78
2020/12/22 11:53:32;;;;;;;0.55;0.20;;;22.10;46.20;;;;;;5077696;28;20521;-78
2020/12/22 11:55:57;;;;;;;0.57;0.10;;;22.10;46.20;;;;;;5078537;28;20434;-79
2020/12/22 11:58:23;;;;;;;0.80;0.20;;;22.10;46.20;;;;;;5059493;28;20066;-79
2020/12/22 12:00:57;;;;;;;0.40;0.10;;;22.10;46.20;;;;;;5079673;28;20123;-79
2020/12/22 12:03:23;;;;;;;3.58;0.52;;;22.10;46.30;;;;;;5063246;28;20074;-76
2020/12/22 12:05:49;;;;;;;0.73;0.10;;;22.00;46.20;;;;;;5078459;28;20024;-78
2020/12/22 12:08:14;;;;;;;1.05;0.15;;;22.00;46.30;;;;;;5081432;28;20020;-78
2020/12/22 12:10:40;;;;;;;1.05;0.10;;;22.00;46.40;;;;;;5080712;28;20404;-78
2020/12/22 12:13:05;;;;;;;0.93;0.10;;;22.00;46.30;;;;;;5063688;28;20032;-80
2020/12/22 12:15:31;;;;;;;1.00;0.10;;;22.00;46.50;;;;;;5060749;28;20028;-80
2020/12/22 12:17:57;;;;;;;0.38;0.10;;;22.00;46.20;;;;;;5076985;28;20024;-79
2020/12/22 12:20:22;;;;;;;0.90;0.10;;;22.00;46.10;;;;;;5075919;28;20021;-80
2020/12/22 12:22:48;;;;;;;0.40;0.10;;;22.00;46.20;;;;;;5093441;28;20016;-78
2020/12/22 12:25:13;;;;;;;1.90;0.20;;;22.00;46.60;;;;;;5059289;28;20416;-79
2020/12/22 12:27:39;;;;;;;1.20;0.20;;;22.00;46.60;;;;;;5062117;28;20382;-79
2020/12/22 12:30:05;;;;;;;0.60;0.10;;;22.10;46.70;;;;;;5059718;28;20043;-78
2020/12/22 12:32:30;;;;;;;0.45;0.10;;;22.10;46.30;;;;;;5060516;28;20032;-80
2020/12/22 12:34:56;;;;;;;1.40;0.20;;;22.10;46.20;;;;;;5055172;28;20055;-78
2020/12/22 12:37:22;;;;;;;0.40;0.10;;;22.10;46.10;;;;;;5069963;28;20528;-79
2020/12/22 12:39:48;;;;;;;0.55;0.17;;;22.10;46.20;;;;;;5062736;28;20043;-79
2020/12/22 12:42:13;;;;;;;0.60;0.10;;;22.10;46.20;;;;;;5096530;28;20105;-79
2020/12/22 12:44:39;;;;;;;0.45;0.10;;;22.10;46.00;;;;;;5054021;28;20029;-78
2020/12/22 12:47:04;;;;;;;0.38;0.10;;;22.00;46.10;;;;;;5045753;28;20024;-78
2020/12/22 12:49:30;;;;;;;0.60;0.10;;;22.00;46.30;;;;;;5095545;28;20024;-79